Time;durP1;ratioP1;P1;durP2;ratioP2;P2;SDS_P1;SDS_P2;PMS_P1;PMS_P2;Temp;Humidity;BMP_temperature;BMP_pressure;BME280_temperature;BME280_humidity;BME280_pressure;Samples;Min_cycle;Max_cycle;Signal;HPM_P1;HPM_P2
2022/01/29 00:01:56;;;;;;;9.65;1.63;;;8.80;67.30;;;;;;20660046;28;20050;-78
2022/01/29 00:11:57;;;;;;;2.97;1.33;;;8.70;67.30;;;;;;20656717;28;20359;-77
2022/01/29 00:21:58;;;;;;;2.33;1.38;;;8.70;67.30;;;;;;20656337;28;21097;-77
2022/01/29 00:31:59;;;;;;;4.88;1.65;;;8.70;67.30;;;;;;20655885;28;20042;-78
2022/01/29 00:41:59;;;;;;;5.82;1.50;;;8.70;67.30;;;;;;20655527;28;20393;-78
2022/01/29 00:52:00;;;;;;;6.45;2.05;;;8.70;67.40;;;;;;20672039;28;20034;-77
2022/01/29 01:02:02;;;;;;;8.65;1.92;;;8.70;67.40;;;;;;20686975;28;20563;-77
2022/01/29 01:12:05;;;;;;;5.85;2.63;;;8.70;67.40;;;;;;20633779;28;20480;-78
2022/01/29 01:22:06;;;;;;;10.40;3.67;;;8.70;67.50;;;;;;20571098;28;20027;-77
2022/01/29 01:32:11;;;;;;;8.63;2.25;;;8.70;67.60;;;;;;20577343;28;20051;-78
2022/01/29 01:42:12;;;;;;;5.07;2.67;;;8.80;67.70;;;;;;20575937;28;20031;-77
2022/01/29 01:52:14;;;;;;;5.80;3.17;;;8.70;67.80;;;;;;20559658;28;20130;-77
2022/01/29 02:02:15;;;;;;;9.70;3.95;;;8.70;67.80;;;;;;20558119;28;20041;-78
2022/01/29 02:12:15;;;;;;;12.15;4.05;;;8.70;67.90;;;;;;20573887;28;20054;-78
2022/01/29 02:22:16;;;;;;;6.65;3.67;;;8.70;68.10;;;;;;20555926;28;20092;-79
2022/01/29 02:32:17;;;;;;;6.85;4.45;;;8.60;68.10;;;;;;20571188;28;20093;-77
2022/01/29 02:42:17;;;;;;;9.40;4.13;;;8.70;68.20;;;;;;20587040;28;20030;-78
2022/01/29 02:52:18;;;;;;;8.23;3.90;;;8.70;68.30;;;;;;20554433;28;20043;-78
2022/01/29 03:02:20;;;;;;;7.18;3.30;;;8.60;68.30;;;;;;20569421;28;20034;-78
2022/01/29 03:12:22;;;;;;;12.23;4.18;;;8.70;68.40;;;;;;20569009;28;20046;-78
2022/01/29 03:22:26;;;;;;;10.13;4.25;;;8.70;68.50;;;;;;20552742;28;20114;-78
2022/01/29 03:32:26;;;;;;;10.27;4.72;;;8.70;68.40;;;;;;20581650;28;20046;-78
2022/01/29 03:42:29;;;;;;;12.33;4.97;;;8.70;68.60;;;;;;20549910;28;20370;-78
2022/01/29 03:52:30;;;;;;;9.90;4.35;;;8.70;68.60;;;;;;20582371;28;20350;-78
2022/01/29 04:02:31;;;;;;;8.23;3.67;;;8.70;68.80;;;;;;20566174;28;20066;-78
2022/01/29 04:12:40;;;;;;;9.68;5.20;;;8.70;68.90;;;;;;20565880;28;20037;-78
2022/01/29 04:22:41;;;;;;;8.20;4.47;;;8.70;69.00;;;;;;20566417;28;20117;-78
2022/01/29 04:42:43;;;;;;;8.88;5.40;;;8.70;69.30;;;;;;20564582;28;20066;-78
2022/01/29 04:52:47;;;;;;;8.93;4.93;;;8.70;69.50;;;;;;20563459;28;20101;-79
2022/01/29 05:02:49;;;;;;;8.48;4.80;;;8.70;69.70;;;;;;20578861;28;20353;-77
2022/01/29 05:12:58;;;;;;;9.77;4.68;;;8.60;69.80;;;;;;20592627;28;20058;-78
2022/01/29 05:33:18;;;;;;;11.57;5.28;;;8.90;69.70;;;;;;20579348;28;20105;-79
2022/01/29 05:43:19;;;;;;;6.78;3.80;;;9.00;69.30;;;;;;20558725;28;20027;-78
2022/01/29 05:53:19;;;;;;;11.20;4.85;;;9.30;68.70;;;;;;20581021;28;20516;-78
2022/01/29 06:03:21;;;;;;;7.88;4.32;;;9.50;68.20;;;;;;20589327;28;20049;-79
2022/01/29 06:13:22;;;;;;;10.38;4.28;;;9.60;67.80;;;;;;20573265;28;20031;-78
2022/01/29 06:23:30;;;;;;;6.88;4.28;;;9.60;67.60;;;;;;20572300;28;20470;-78
2022/01/29 06:33:31;;;;;;;7.28;4.55;;;9.50;67.70;;;;;;20572678;28;20043;-77
2022/01/29 06:43:31;;;;;;;9.87;4.60;;;9.40;68.20;;;;;;20570979;28;20059;-78
2022/01/29 06:53:32;;;;;;;10.10;4.10;;;9.30;68.60;;;;;;20585992;28;20302;-78
2022/01/29 07:03:34;;;;;;;5.85;3.78;;;9.20;69.10;;;;;;20571204;28;20118;-78
2022/01/29 07:13:35;;;;;;;6.68;3.78;;;9.10;69.50;;;;;;20584523;28;20127;-77
2022/01/29 07:23:36;;;;;;;10.55;4.45;;;9.00;69.90;;;;;;20590667;28;20042;-79
2022/01/29 07:33:36;;;;;;;8.73;4.10;;;8.90;70.10;;;;;;20567717;28;20540;-78
2022/01/29 07:43:38;;;;;;;8.68;4.28;;;8.90;70.50;;;;;;20551090;28;20035;-78
2022/01/29 07:53:39;;;;;;;8.55;4.55;;;8.80;70.80;;;;;;20550525;28;20050;-79
2022/01/29 08:03:40;;;;;;;6.65;3.92;;;8.80;71.10;;;;;;20550025;28;20093;-78
2022/01/29 08:13:43;;;;;;;7.60;4.32;;;8.80;71.30;;;;;;20534104;28;20066;-78
2022/01/29 08:23:44;;;;;;;7.13;4.18;;;8.80;71.70;;;;;;20558718;28;20058;-79
2022/01/29 08:33:44;;;;;;;8.43;4.77;;;8.70;71.90;;;;;;20581000;28;20433;-79
2022/01/29 08:43:46;;;;;;;7.15;3.95;;;8.70;72.20;;;;;;20580430;28;20676;-79
2022/01/29 08:53:47;;;;;;;6.43;3.90;;;8.70;72.60;;;;;;20595699;28;20031;-78
2022/01/29 09:03:48;;;;;;;9.20;3.92;;;8.70;72.90;;;;;;20562565;28;20125;-79
2022/01/29 09:13:49;;;;;;;6.70;4.07;;;8.70;73.10;;;;;;20577687;28;20469;-78
2022/01/29 09:23:55;;;;;;;9.88;3.95;;;8.70;73.60;;;;;;20576648;28;20073;-78
2022/01/29 09:33:57;;;;;;;9.15;5.03;;;8.70;73.90;;;;;;20575822;28;20093;-78
2022/01/29 09:43:58;;;;;;;6.63;4.25;;;8.70;74.30;;;;;;20559532;28;20038;-78
2022/01/29 09:53:59;;;;;;;6.45;4.43;;;8.70;74.60;;;;;;20590167;28;20047;-78
2022/01/29 10:04:02;;;;;;;8.18;4.82;;;8.70;74.90;;;;;;20558223;28;20340;-78
2022/01/29 10:14:06;;;;;;;8.52;4.57;;;8.70;75.40;;;;;;20573581;28;20379;-79
2022/01/29 10:24:10;;;;;;;6.93;3.92;;;8.70;75.90;;;;;;20573304;28;20039;-78
2022/01/29 10:34:23;;;;;;;7.80;4.15;;;8.70;76.20;;;;;;20556657;28;20039;-78
2022/01/29 10:44:24;;;;;;;6.20;3.42;;;8.70;76.90;;;;;;20555039;28;20401;-77
2022/01/29 10:54:25;;;;;;;6.20;3.13;;;8.70;77.00;;;;;;20554438;28;20046;-79
2022/01/29 11:04:28;;;;;;;3.70;2.35;;;8.70;77.40;;;;;;20569924;28;20027;-79
2022/01/29 11:14:28;;;;;;;4.55;2.42;;;8.70;77.50;;;;;;20553175;28;20035;-78
2022/01/29 11:24:36;;;;;;;5.45;2.28;;;8.80;77.60;;;;;;20554212;28;20061;-78
2022/01/29 11:35:23;;;;;;;5.03;2.45;;;8.90;77.30;;;;;;20567590;28;20405;-78
2022/01/29 11:45:55;;;;;;;3.57;1.60;;;9.10;76.70;;;;;;20506246;28;20689;-78
2022/01/29 11:55:56;;;;;;;5.65;2.20;;;9.30;76.00;;;;;;21050194;23;20046;-82
2022/01/29 12:06:09;;;;;;;2.92;1.40;;;9.40;75.20;;;;;;20669119;28;20043;-82
2022/01/29 12:16:50;;;;;;;2.10;1.15;;;9.50;74.50;;;;;;20669450;28;20038;-83
2022/01/29 12:26:55;;;;;;;2.58;1.45;;;9.50;74.80;;;;;;20668720;28;20034;-82
2022/01/29 12:37:16;;;;;;;2.40;1.05;;;9.40;74.10;;;;;;20652402;28;20544;-80
2022/01/29 12:47:46;;;;;;;1.73;1.02;;;9.30;74.30;;;;;;20651510;28;20502;-81
2022/01/29 12:57:48;;;;;;;2.72;1.55;;;9.30;74.70;;;;;;20637988;28;20046;-81
2022/01/29 13:07:50;;;;;;;1.48;1.00;;;9.10;75.00;;;;;;20655496;28;20038;-81
2022/01/29 13:17:50;;;;;;;2.92;1.10;;;9.10;75.30;;;;;;20632702;28;20397;-83
2022/01/29 13:28:02;;;;;;;1.98;1.13;;;9.10;75.70;;;;;;20649159;28;20031;-83
2022/01/29 13:38:09;;;;;;;2.15;1.05;;;9.00;76.00;;;;;;20635232;28;20042;-83
2022/01/29 13:48:10;;;;;;;3.75;1.30;;;9.00;76.20;;;;;;20679870;28;20396;-82
2022/01/29 13:58:12;;;;;;;3.17;1.20;;;9.00;76.40;;;;;;20680908;28;20068;-82
2022/01/29 14:08:17;;;;;;;2.13;1.23;;;9.00;76.60;;;;;;20647195;28;20080;-83
2022/01/29 14:18:17;;;;;;;2.22;1.08;;;9.00;76.90;;;;;;20630812;28;20053;-82
2022/01/29 14:28:21;;;;;;;2.22;1.00;;;9.00;77.00;;;;;;20646491;28;20030;-83
2022/01/29 14:38:23;;;;;;;2.47;1.60;;;9.00;77.00;;;;;;20663554;28;20054;-83
2022/01/29 14:48:26;;;;;;;2.25;1.30;;;9.00;77.00;;;;;;20677719;28;20120;-83
2022/01/29 14:58:28;;;;;;;4.50;1.65;;;9.00;77.10;;;;;;20647207;28;20039;-83
2022/01/29 15:08:28;;;;;;;3.20;1.00;;;9.00;77.10;;;;;;20648074;28;20108;-83
2022/01/29 15:18:29;;;;;;;4.57;1.50;;;9.00;77.20;;;;;;20646796;28;20050;-84
2022/01/29 15:28:30;;;;;;;2.90;1.58;;;9.00;77.30;;;;;;20647810;28;20042;-84
2022/01/29 15:38:32;;;;;;;2.22;1.40;;;9.00;77.50;;;;;;20678409;28;20034;-83
2022/01/29 15:48:37;;;;;;;1.23;0.90;;;9.10;77.70;;;;;;20656590;28;20042;-82
2022/01/29 15:58:37;;;;;;;2.40;1.40;;;9.00;77.70;;;;;;20631810;28;20045;-83
2022/01/29 16:08:40;;;;;;;4.60;1.75;;;9.00;78.00;;;;;;20663986;28;20057;-84
2022/01/29 16:18:41;;;;;;;4.88;1.40;;;9.00;78.50;;;;;;20664154;28;20401;-84
2022/01/29 16:28:43;;;;;;;2.33;1.20;;;9.10;78.80;;;;;;20693611;28;20036;-82
2022/01/29 16:38:44;;;;;;;2.38;1.48;;;9.10;79.40;;;;;;20716784;28;20300;-82
2022/01/29 16:48:45;;;;;;;2.25;1.15;;;9.20;78.90;;;;;;20763478;28;20033;-81
2022/01/29 16:58:47;;;;;;;4.15;1.75;;;9.20;78.80;;;;;;20747560;28;20120;-81
2022/01/29 17:08:47;;;;;;;2.90;1.35;;;9.20;78.80;;;;;;20735858;28;20065;-82
2022/01/29 17:18:48;;;;;;;2.10;1.05;;;9.20;78.90;;;;;;20729276;28;20378;-84
2022/01/29 17:28:49;;;;;;;1.50;0.80;;;9.20;79.00;;;;;;20761826;28;20412;-82
2022/01/29 17:38:51;;;;;;;3.47;0.70;;;9.20;79.20;;;;;;20745845;28;20033;-80
2022/01/29 17:48:51;;;;;;;3.33;0.80;;;9.20;79.40;;;;;;20745611;28;20068;-81
2022/01/29 17:58:53;;;;;;;2.90;1.23;;;9.20;79.80;;;;;;20724412;28;20092;-82
2022/01/29 18:08:54;;;;;;;3.03;0.77;;;9.20;79.90;;;;;;20744897;28;20064;-81
2022/01/29 18:18:55;;;;;;;4.03;0.90;;;9.30;80.20;;;;;;20729573;28;20029;-83
2022/01/29 18:28:55;;;;;;;0.95;0.63;;;9.20;80.40;;;;;;20761315;28;20038;-81
2022/01/29 18:38:56;;;;;;;4.15;1.48;;;9.10;80.60;;;;;;20761963;28;20034;-82
2022/01/29 18:48:58;;;;;;;9.57;2.22;;;9.10;81.00;;;;;;20743376;28;20117;-82
2022/01/29 18:58:59;;;;;;;5.82;1.55;;;9.10;81.20;;;;;;20742855;28;20312;-80
2022/01/29 19:09:00;;;;;;;7.53;1.75;;;9.10;81.20;;;;;;20735788;28;20030;-81
2022/01/29 19:19:01;;;;;;;7.72;2.20;;;9.20;80.90;;;;;;20733187;28;20057;-82
2022/01/29 19:29:02;;;;;;;14.57;2.63;;;9.00;80.50;;;;;;20749327;28;20026;-80
2022/01/29 19:39:02;;;;;;;17.92;2.20;;;9.10;80.30;;;;;;20731983;28;20095;-82
2022/01/29 19:49:03;;;;;;;7.53;2.08;;;9.10;80.00;;;;;;20716287;28;20037;-81
2022/01/29 19:59:05;;;;;;;8.52;2.00;;;9.00;79.70;;;;;;20747769;28;20042;-80
2022/01/29 20:09:06;;;;;;;5.30;2.28;;;9.00;79.40;;;;;;20714535;28;20034;-80
2022/01/29 20:19:07;;;;;;;15.43;3.97;;;9.10;79.80;;;;;;20754729;28;20038;-81
2022/01/29 20:29:10;;;;;;;12.88;2.70;;;9.00;78.70;;;;;;20745798;28;20447;-81
2022/01/29 20:39:13;;;;;;;13.45;2.63;;;9.00;78.10;;;;;;20760893;28;20050;-80
2022/01/29 20:49:13;;;;;;;11.20;3.53;;;9.00;77.70;;;;;;20761136;28;20128;-80
2022/01/29 20:59:14;;;;;;;12.13;2.50;;;9.00;77.20;;;;;;20728343;28;20145;-80
2022/01/29 21:09:15;;;;;;;11.57;2.25;;;9.00;76.70;;;;;;20743177;28;20325;-80
2022/01/29 21:19:16;;;;;;;14.18;3.58;;;9.00;76.20;;;;;;20726552;28;20033;-81
2022/01/29 21:29:19;;;;;;;11.60;2.85;;;9.00;75.70;;;;;;20757312;28;20288;-80
2022/01/29 21:39:20;;;;;;;8.02;2.35;;;9.00;75.40;;;;;;20724901;28;20084;-81
2022/01/29 21:49:21;;;;;;;12.80;3.65;;;9.00;74.60;;;;;;20757755;28;20037;-82
2022/01/29 21:59:26;;;;;;;10.70;3.95;;;9.00;74.20;;;;;;20739496;28;20485;-80
2022/01/29 22:09:26;;;;;;;11.30;2.58;;;9.00;73.60;;;;;;20723340;28;20038;-81
2022/01/29 22:19:27;;;;;;;15.52;2.58;;;8.90;73.40;;;;;;20754442;28;20072;-81
2022/01/29 22:29:28;;;;;;;16.08;2.53;;;9.00;73.60;;;;;;20754451;28;20045;-81
2022/01/29 22:39:30;;;;;;;15.88;3.40;;;9.00;73.90;;;;;;20736729;28;20133;-82
2022/01/29 22:49:31;;;;;;;13.43;2.22;;;9.00;74.00;;;;;;20737439;28;20048;-83
2022/01/29 22:59:32;;;;;;;12.68;2.05;;;9.00;74.00;;;;;;20721944;28;20038;-82
2022/01/29 23:09:42;;;;;;;16.60;2.17;;;8.90;73.70;;;;;;20760107;28;20295;-83
2022/01/29 23:19:54;;;;;;;9.52;1.88;;;8.90;73.30;;;;;;20759020;28;20292;-82
2022/01/29 23:29:56;;;;;;;11.57;1.85;;;8.90;73.00;;;;;;20743126;28;20141;-82
2022/01/29 23:40:04;;;;;;;11.10;2.95;;;8.90;72.30;;;;;;20725999;28;20029;-83
2022/01/29 23:50:07;;;;;;;6.43;1.90;;;8.90;72.00;;;;;;20756143;28;20048;-82
